sensor_id;sensor_type;location;lat;lon;timestamp;temperature;humidity
51996;DHT22;38010;53.264;6.592;2023-06-22T00:00:50;23.10;98.60
51996;DHT22;38010;53.264;6.592;2023-06-22T00:03:20;23.20;98.70
51996;DHT22;38010;53.264;6.592;2023-06-22T00:05:46;23.10;98.60
51996;DHT22;38010;53.264;6.592;2023-06-22T00:08:12;23.10;98.60
51996;DHT22;38010;53.264;6.592;2023-06-22T00:10:38;23.20;98.60
51996;DHT22;38010;53.264;6.592;2023-06-22T00:13:05;23.20;98.80
51996;DHT22;38010;53.264;6.592;2023-06-22T00:15:33;23.10;98.50
51996;DHT22;38010;53.264;6.592;2023-06-22T00:17:59;23.10;98.50
51996;DHT22;38010;53.264;6.592;2023-06-22T00:20:25;23.10;98.50
51996;DHT22;38010;53.264;6.592;2023-06-22T00:22:54;23.10;98.50
51996;DHT22;38010;53.264;6.592;2023-06-22T00:25:20;23.10;98.50
51996;DHT22;38010;53.264;6.592;2023-06-22T00:27:46;23.10;98.50
51996;DHT22;38010;53.264;6.592;2023-06-22T00:30:12;23.10;98.50
51996;DHT22;38010;53.264;6.592;2023-06-22T00:32:37;23.10;98.50
51996;DHT22;38010;53.264;6.592;2023-06-22T00:35:05;23.10;98.60
51996;DHT22;38010;53.264;6.592;2023-06-22T00:37:31;23.10;98.50
51996;DHT22;38010;53.264;6.592;2023-06-22T00:39:56;23.10;98.50
51996;DHT22;38010;53.264;6.592;2023-06-22T00:42:22;23.10;98.50
51996;DHT22;38010;53.264;6.592;2023-06-22T00:44:48;23.10;98.50
51996;DHT22;38010;53.264;6.592;2023-06-22T00:47:15;23.10;98.50
51996;DHT22;38010;53.264;6.592;2023-06-22T00:49:41;23.10;98.40
51996;DHT22;38010;53.264;6.592;2023-06-22T00:52:08;23.10;98.40
51996;DHT22;38010;53.264;6.592;2023-06-22T00:54:40;23.10;98.40
51996;DHT22;38010;53.264;6.592;2023-06-22T00:57:13;23.00;98.40
51996;DHT22;38010;53.264;6.592;2023-06-22T00:59:45;23.00;98.30
51996;DHT22;38010;53.264;6.592;2023-06-22T01:02:11;23.00;98.30
51996;DHT22;38010;53.264;6.592;2023-06-22T01:04:38;23.00;98.30
51996;DHT22;38010;53.264;6.592;2023-06-22T01:10:23;23.00;98.20
51996;DHT22;38010;53.264;6.592;2023-06-22T01:12:57;23.00;98.10
51996;DHT22;38010;53.264;6.592;2023-06-22T01:15:32;23.00;98.10
51996;DHT22;38010;53.264;6.592;2023-06-22T01:17:59;22.90;98.00
51996;DHT22;38010;53.264;6.592;2023-06-22T01:20:28;22.90;98.00
51996;DHT22;38010;53.264;6.592;2023-06-22T01:26:06;22.90;98.00
51996;DHT22;38010;53.264;6.592;2023-06-22T01:31:08;22.90;98.00
51996;DHT22;38010;53.264;6.592;2023-06-22T01:33:39;22.90;98.00
51996;DHT22;38010;53.264;6.592;2023-06-22T01:36:06;22.90;98.00
51996;DHT22;38010;53.264;6.592;2023-06-22T01:38:33;22.90;97.90
51996;DHT22;38010;53.264;6.592;2023-06-22T01:40:59;22.90;97.90
51996;DHT22;38010;53.264;6.592;2023-06-22T01:43:27;22.80;97.80
51996;DHT22;38010;53.264;6.592;2023-06-22T01:45:54;22.90;97.80
51996;DHT22;38010;53.264;6.592;2023-06-22T01:48:21;22.80;97.70
51996;DHT22;38010;53.264;6.592;2023-06-22T01:50:47;22.80;97.70
51996;DHT22;38010;53.264;6.592;2023-06-22T01:53:13;22.80;97.70
51996;DHT22;38010;53.264;6.592;2023-06-22T01:55:38;22.80;97.70
51996;DHT22;38010;53.264;6.592;2023-06-22T01:58:04;22.80;97.60
51996;DHT22;38010;53.264;6.592;2023-06-22T02:00:37;22.80;97.60
51996;DHT22;38010;53.264;6.592;2023-06-22T02:03:30;22.80;97.60
51996;DHT22;38010;53.264;6.592;2023-06-22T02:05:58;22.80;97.60
51996;DHT22;38010;53.264;6.592;2023-06-22T02:08:50;22.80;97.60
51996;DHT22;38010;53.264;6.592;2023-06-22T02:11:20;22.80;97.80
51996;DHT22;38010;53.264;6.592;2023-06-22T02:13:47;22.80;97.60
51996;DHT22;38010;53.264;6.592;2023-06-22T02:16:14;22.80;97.50
51996;DHT22;38010;53.264;6.592;2023-06-22T02:18:48;22.80;97.50
51996;DHT22;38010;53.264;6.592;2023-06-22T02:21:18;22.80;97.50
51996;DHT22;38010;53.264;6.592;2023-06-22T02:23:44;22.80;97.50
51996;DHT22;38010;53.264;6.592;2023-06-22T02:26:10;22.80;97.50
51996;DHT22;38010;53.264;6.592;2023-06-22T02:28:35;22.70;97.50
51996;DHT22;38010;53.264;6.592;2023-06-22T02:31:01;22.70;97.50
51996;DHT22;38010;53.264;6.592;2023-06-22T02:33:27;22.70;97.50
51996;DHT22;38010;53.264;6.592;2023-06-22T02:35:53;22.70;97.40
51996;DHT22;38010;53.264;6.592;2023-06-22T02:38:18;22.70;97.50
51996;DHT22;38010;53.264;6.592;2023-06-22T02:40:46;22.70;97.50
51996;DHT22;38010;53.264;6.592;2023-06-22T02:43:12;22.70;97.70
51996;DHT22;38010;53.264;6.592;2023-06-22T02:45:38;22.70;97.40
51996;DHT22;38010;53.264;6.592;2023-06-22T02:48:04;22.70;97.40
51996;DHT22;38010;53.264;6.592;2023-06-22T02:50:30;22.60;97.40
51996;DHT22;38010;53.264;6.592;2023-06-22T02:52:56;22.60;97.30
51996;DHT22;38010;53.264;6.592;2023-06-22T02:55:22;22.60;97.40
51996;DHT22;38010;53.264;6.592;2023-06-22T02:57:49;22.60;97.30
51996;DHT22;38010;53.264;6.592;2023-06-22T03:00:18;22.60;97.30
51996;DHT22;38010;53.264;6.592;2023-06-22T03:02:48;22.60;97.30
51996;DHT22;38010;53.264;6.592;2023-06-22T03:05:15;22.60;97.30
51996;DHT22;38010;53.264;6.592;2023-06-22T03:07:44;22.60;97.30
51996;DHT22;38010;53.264;6.592;2023-06-22T03:10:11;22.60;97.30
51996;DHT22;38010;53.264;6.592;2023-06-22T03:12:38;22.60;97.30
51996;DHT22;38010;53.264;6.592;2023-06-22T03:15:08;22.60;97.30
51996;DHT22;38010;53.264;6.592;2023-06-22T03:17:35;22.60;97.30
51996;DHT22;38010;53.264;6.592;2023-06-22T03:20:02;22.60;97.30
51996;DHT22;38010;53.264;6.592;2023-06-22T03:22:35;22.60;97.30
51996;DHT22;38010;53.264;6.592;2023-06-22T03:25:01;22.60;97.20
51996;DHT22;38010;53.264;6.592;2023-06-22T03:27:27;22.60;97.20
51996;DHT22;38010;53.264;6.592;2023-06-22T03:29:53;22.60;97.20
51996;DHT22;38010;53.264;6.592;2023-06-22T03:32:18;22.60;97.20
51996;DHT22;38010;53.264;6.592;2023-06-22T03:34:44;22.60;97.20
51996;DHT22;38010;53.264;6.592;2023-06-22T03:37:15;22.60;97.20
51996;DHT22;38010;53.264;6.592;2023-06-22T03:39:41;22.60;97.20
51996;DHT22;38010;53.264;6.592;2023-06-22T03:42:07;22.50;97.10
51996;DHT22;38010;53.264;6.592;2023-06-22T03:44:34;22.60;97.10
51996;DHT22;38010;53.264;6.592;2023-06-22T03:47:02;22.50;97.10
51996;DHT22;38010;53.264;6.592;2023-06-22T03:49:28;22.50;97.10
51996;DHT22;38010;53.264;6.592;2023-06-22T03:51:54;22.50;97.10
51996;DHT22;38010;53.264;6.592;2023-06-22T03:54:20;22.50;97.10
51996;DHT22;38010;53.264;6.592;2023-06-22T03:56:45;22.50;97.10
51996;DHT22;38010;53.264;6.592;2023-06-22T03:59:11;22.50;97.10
51996;DHT22;38010;53.264;6.592;2023-06-22T04:01:37;22.50;97.10
51996;DHT22;38010;53.264;6.592;2023-06-22T04:04:02;22.50;97.10
51996;DHT22;38010;53.264;6.592;2023-06-22T04:06:28;22.50;97.10
51996;DHT22;38010;53.264;6.592;2023-06-22T04:08:54;22.50;97.10
51996;DHT22;38010;53.264;6.592;2023-06-22T04:11:19;22.50;97.10
51996;DHT22;38010;53.264;6.592;2023-06-22T04:13:45;22.50;97.10
51996;DHT22;38010;53.264;6.592;2023-06-22T04:16:11;22.50;97.10
51996;DHT22;38010;53.264;6.592;2023-06-22T04:18:36;22.50;97.10
51996;DHT22;38010;53.264;6.592;2023-06-22T04:21:03;22.40;97.10
51996;DHT22;38010;53.264;6.592;2023-06-22T04:23:28;22.40;97.10
51996;DHT22;38010;53.264;6.592;2023-06-22T04:25:54;22.50;97.10
51996;DHT22;38010;53.264;6.592;2023-06-22T04:28:22;22.50;97.10
51996;DHT22;38010;53.264;6.592;2023-06-22T04:30:47;22.40;97.10
51996;DHT22;38010;53.264;6.592;2023-06-22T04:33:17;22.50;97.10
51996;DHT22;38010;53.264;6.592;2023-06-22T04:35:45;22.50;97.10
51996;DHT22;38010;53.264;6.592;2023-06-22T04:38:12;22.50;97.10
51996;DHT22;38010;53.264;6.592;2023-06-22T04:40:41;22.50;97.10
51996;DHT22;38010;53.264;6.592;2023-06-22T04:43:07;22.40;97.10
51996;DHT22;38010;53.264;6.592;2023-06-22T04:45:35;22.50;97.10
51996;DHT22;38010;53.264;6.592;2023-06-22T04:48:04;22.50;97.10
51996;DHT22;38010;53.264;6.592;2023-06-22T04:50:30;22.50;97.20
51996;DHT22;38010;53.264;6.592;2023-06-22T04:52:56;22.50;97.30
51996;DHT22;38010;53.264;6.592;2023-06-22T04:55:21;22.50;97.30
51996;DHT22;38010;53.264;6.592;2023-06-22T04:57:48;22.50;97.30
51996;DHT22;38010;53.264;6.592;2023-06-22T05:00:18;22.50;97.30
51996;DHT22;38010;53.264;6.592;2023-06-22T05:02:46;22.50;97.80
51996;DHT22;38010;53.264;6.592;2023-06-22T05:05:13;22.50;98.30
51996;DHT22;38010;53.264;6.592;2023-06-22T05:07:49;22.50;98.30
51996;DHT22;38010;53.264;6.592;2023-06-22T05:10:18;22.60;98.10
51996;DHT22;38010;53.264;6.592;2023-06-22T05:12:45;22.60;98.20
51996;DHT22;38010;53.264;6.592;2023-06-22T05:15:11;22.60;98.20
51996;DHT22;38010;53.264;6.592;2023-06-22T05:17:38;22.60;98.10
51996;DHT22;38010;53.264;6.592;2023-06-22T05:20:12;22.60;98.10
51996;DHT22;38010;53.264;6.592;2023-06-22T05:22:41;22.60;98.30
51996;DHT22;38010;53.264;6.592;2023-06-22T05:25:10;22.60;98.30
51996;DHT22;38010;53.264;6.592;2023-06-22T05:27:36;22.60;98.30
51996;DHT22;38010;53.264;6.592;2023-06-22T05:30:08;22.60;98.30
51996;DHT22;38010;53.264;6.592;2023-06-22T05:32:35;22.60;98.20
51996;DHT22;38010;53.264;6.592;2023-06-22T05:35:02;22.60;98.30
51996;DHT22;38010;53.264;6.592;2023-06-22T05:37:28;22.60;98.30
51996;DHT22;38010;53.264;6.592;2023-06-22T05:39:54;22.60;98.30
51996;DHT22;38010;53.264;6.592;2023-06-22T05:42:21;22.60;98.40
51996;DHT22;38010;53.264;6.592;2023-06-22T05:44:46;22.60;98.40
51996;DHT22;38010;53.264;6.592;2023-06-22T05:47:13;22.70;98.40
51996;DHT22;38010;53.264;6.592;2023-06-22T05:49:38;22.60;98.40
51996;DHT22;38010;53.264;6.592;2023-06-22T05:52:04;22.70;98.50
51996;DHT22;38010;53.264;6.592;2023-06-22T05:54:30;22.70;98.50
51996;DHT22;38010;53.264;6.592;2023-06-22T05:56:56;22.70;98.50
51996;DHT22;38010;53.264;6.592;2023-06-22T05:59:22;22.70;98.60
51996;DHT22;38010;53.264;6.592;2023-06-22T06:01:47;22.70;98.60
51996;DHT22;38010;53.264;6.592;2023-06-22T06:04:17;22.70;98.50
51996;DHT22;38010;53.264;6.592;2023-06-22T06:06:44;22.70;98.40
51996;DHT22;38010;53.264;6.592;2023-06-22T06:09:09;22.70;98.30
51996;DHT22;38010;53.264;6.592;2023-06-22T06:11:37;22.80;98.40
51996;DHT22;38010;53.264;6.592;2023-06-22T06:14:03;22.80;98.40
51996;DHT22;38010;53.264;6.592;2023-06-22T06:16:29;22.80;98.50
51996;DHT22;38010;53.264;6.592;2023-06-22T06:18:55;22.80;98.50
51996;DHT22;38010;53.264;6.592;2023-06-22T06:21:22;22.80;98.60
51996;DHT22;38010;53.264;6.592;2023-06-22T06:23:47;22.80;98.60
51996;DHT22;38010;53.264;6.592;2023-06-22T06:26:13;22.80;98.60
51996;DHT22;38010;53.264;6.592;2023-06-22T06:28:42;22.80;98.60
51996;DHT22;38010;53.264;6.592;2023-06-22T06:31:07;22.80;98.70
51996;DHT22;38010;53.264;6.592;2023-06-22T06:33:34;22.80;98.50
51996;DHT22;38010;53.264;6.592;2023-06-22T06:36:00;22.80;98.60
51996;DHT22;38010;53.264;6.592;2023-06-22T06:38:29;22.90;98.50
51996;DHT22;38010;53.264;6.592;2023-06-22T06:40:55;22.80;98.60
51996;DHT22;38010;53.264;6.592;2023-06-22T06:43:21;22.90;98.60
51996;DHT22;38010;53.264;6.592;2023-06-22T06:45:48;22.90;98.50
51996;DHT22;38010;53.264;6.592;2023-06-22T06:48:14;22.90;98.60
51996;DHT22;38010;53.264;6.592;2023-06-22T06:50:39;22.90;98.60
51996;DHT22;38010;53.264;6.592;2023-06-22T06:53:05;22.90;98.20
51996;DHT22;38010;53.264;6.592;2023-06-22T06:55:32;22.90;98.40
51996;DHT22;38010;53.264;6.592;2023-06-22T06:57:58;23.00;98.50
51996;DHT22;38010;53.264;6.592;2023-06-22T07:00:25;23.00;98.10
51996;DHT22;38010;53.264;6.592;2023-06-22T07:02:51;23.00;98.00
51996;DHT22;38010;53.264;6.592;2023-06-22T07:05:17;23.00;97.90
51996;DHT22;38010;53.264;6.592;2023-06-22T07:07:42;23.00;97.90
51996;DHT22;38010;53.264;6.592;2023-06-22T07:10:08;23.00;97.90
51996;DHT22;38010;53.264;6.592;2023-06-22T07:12:34;23.00;97.90
51996;DHT22;38010;53.264;6.592;2023-06-22T07:15:05;23.00;97.80
51996;DHT22;38010;53.264;6.592;2023-06-22T07:17:31;23.00;97.80
51996;DHT22;38010;53.264;6.592;2023-06-22T07:19:57;23.00;97.80
51996;DHT22;38010;53.264;6.592;2023-06-22T07:22:22;23.00;97.80
51996;DHT22;38010;53.264;6.592;2023-06-22T07:24:48;23.00;97.70
51996;DHT22;38010;53.264;6.592;2023-06-22T07:27:15;23.00;97.70
51996;DHT22;38010;53.264;6.592;2023-06-22T07:29:44;23.10;97.70
51996;DHT22;38010;53.264;6.592;2023-06-22T07:32:10;23.00;97.70
51996;DHT22;38010;53.264;6.592;2023-06-22T07:34:35;23.00;97.60
51996;DHT22;38010;53.264;6.592;2023-06-22T07:37:01;23.00;97.60
51996;DHT22;38010;53.264;6.592;2023-06-22T07:39:27;23.00;97.60
51996;DHT22;38010;53.264;6.592;2023-06-22T07:41:53;23.00;97.60
51996;DHT22;38010;53.264;6.592;2023-06-22T07:44:19;23.10;97.60
51996;DHT22;38010;53.264;6.592;2023-06-22T07:46:45;23.00;97.60
51996;DHT22;38010;53.264;6.592;2023-06-22T07:49:11;23.00;97.60
51996;DHT22;38010;53.264;6.592;2023-06-22T07:51:37;23.10;97.70
51996;DHT22;38010;53.264;6.592;2023-06-22T07:54:02;23.00;97.60
51996;DHT22;38010;53.264;6.592;2023-06-22T07:56:28;23.00;97.60
51996;DHT22;38010;53.264;6.592;2023-06-22T07:58:54;23.00;97.60
51996;DHT22;38010;53.264;6.592;2023-06-22T08:01:20;23.10;97.60
51996;DHT22;38010;53.264;6.592;2023-06-22T08:03:49;23.00;97.60
51996;DHT22;38010;53.264;6.592;2023-06-22T08:06:15;23.00;97.70
51996;DHT22;38010;53.264;6.592;2023-06-22T08:08:42;23.10;97.70
51996;DHT22;38010;53.264;6.592;2023-06-22T08:11:08;23.10;97.70
51996;DHT22;38010;53.264;6.592;2023-06-22T08:13:34;23.10;97.80
51996;DHT22;38010;53.264;6.592;2023-06-22T08:16:00;23.10;97.80
51996;DHT22;38010;53.264;6.592;2023-06-22T08:18:26;23.10;97.80
51996;DHT22;38010;53.264;6.592;2023-06-22T08:20:52;23.10;97.70
51996;DHT22;38010;53.264;6.592;2023-06-22T08:23:18;23.10;97.70
51996;DHT22;38010;53.264;6.592;2023-06-22T08:25:44;23.10;97.70
51996;DHT22;38010;53.264;6.592;2023-06-22T08:28:09;23.10;98.00
51996;DHT22;38010;53.264;6.592;2023-06-22T08:30:35;23.10;98.00
51996;DHT22;38010;53.264;6.592;2023-06-22T08:33:01;23.20;98.10
51996;DHT22;38010;53.264;6.592;2023-06-22T08:35:27;23.10;98.20
51996;DHT22;38010;53.264;6.592;2023-06-22T08:37:53;23.10;98.20
51996;DHT22;38010;53.264;6.592;2023-06-22T08:40:20;23.20;98.20
51996;DHT22;38010;53.264;6.592;2023-06-22T08:42:47;23.10;98.10
51996;DHT22;38010;53.264;6.592;2023-06-22T08:45:13;23.10;98.30
51996;DHT22;38010;53.264;6.592;2023-06-22T08:47:40;23.10;98.30
51996;DHT22;38010;53.264;6.592;2023-06-22T08:50:08;23.10;98.30
51996;DHT22;38010;53.264;6.592;2023-06-22T08:52:34;23.10;98.20
51996;DHT22;38010;53.264;6.592;2023-06-22T08:55:00;23.10;98.20
51996;DHT22;38010;53.264;6.592;2023-06-22T08:57:27;23.10;98.40
51996;DHT22;38010;53.264;6.592;2023-06-22T08:59:53;23.10;98.40
51996;DHT22;38010;53.264;6.592;2023-06-22T09:02:19;23.10;98.20
51996;DHT22;38010;53.264;6.592;2023-06-22T09:04:48;23.10;98.30
51996;DHT22;38010;53.264;6.592;2023-06-22T09:07:15;23.10;98.40
51996;DHT22;38010;53.264;6.592;2023-06-22T09:09:47;23.10;98.40
51996;DHT22;38010;53.264;6.592;2023-06-22T09:12:13;23.10;98.20
51996;DHT22;38010;53.264;6.592;2023-06-22T09:14:39;23.10;98.30
51996;DHT22;38010;53.264;6.592;2023-06-22T09:17:05;23.10;98.40
51996;DHT22;38010;53.264;6.592;2023-06-22T09:19:30;23.10;98.40
51996;DHT22;38010;53.264;6.592;2023-06-22T09:21:56;23.10;98.40
51996;DHT22;38010;53.264;6.592;2023-06-22T09:24:22;23.10;98.30
51996;DHT22;38010;53.264;6.592;2023-06-22T09:26:48;23.10;98.30
51996;DHT22;38010;53.264;6.592;2023-06-22T09:29:14;23.10;98.50
51996;DHT22;38010;53.264;6.592;2023-06-22T09:31:40;23.10;98.30
51996;DHT22;38010;53.264;6.592;2023-06-22T09:34:06;23.10;98.50
51996;DHT22;38010;53.264;6.592;2023-06-22T09:36:32;23.10;98.40
51996;DHT22;38010;53.264;6.592;2023-06-22T09:38:57;23.20;98.30
51996;DHT22;38010;53.264;6.592;2023-06-22T09:41:24;23.30;98.30
51996;DHT22;38010;53.264;6.592;2023-06-22T09:43:50;23.30;98.20
51996;DHT22;38010;53.264;6.592;2023-06-22T09:46:16;23.40;98.20
51996;DHT22;38010;53.264;6.592;2023-06-22T09:48:42;23.70;99.90
51996;DHT22;38010;53.264;6.592;2023-06-22T09:51:08;23.50;98.20
51996;DHT22;38010;53.264;6.592;2023-06-22T09:53:34;23.50;98.10
51996;DHT22;38010;53.264;6.592;2023-06-22T09:56:01;23.50;98.00
51996;DHT22;38010;53.264;6.592;2023-06-22T09:58:27;23.50;98.00
51996;DHT22;38010;53.264;6.592;2023-06-22T10:00:53;23.60;98.00
51996;DHT22;38010;53.264;6.592;2023-06-22T10:03:20;23.70;98.00
51996;DHT22;38010;53.264;6.592;2023-06-22T10:05:46;23.70;98.00
51996;DHT22;38010;53.264;6.592;2023-06-22T10:08:12;23.80;98.00
51996;DHT22;38010;53.264;6.592;2023-06-22T10:10:38;23.80;98.00
51996;DHT22;38010;53.264;6.592;2023-06-22T10:13:08;23.80;98.00
51996;DHT22;38010;53.264;6.592;2023-06-22T10:15:35;23.80;98.00
51996;DHT22;38010;53.264;6.592;2023-06-22T10:18:01;23.80;97.80
51996;DHT22;38010;53.264;6.592;2023-06-22T10:20:27;23.80;97.80
51996;DHT22;38010;53.264;6.592;2023-06-22T10:22:53;23.70;97.70
51996;DHT22;38010;53.264;6.592;2023-06-22T10:25:19;23.70;97.70
51996;DHT22;38010;53.264;6.592;2023-06-22T10:27:45;23.70;97.70
51996;DHT22;38010;53.264;6.592;2023-06-22T10:30:12;23.70;97.70
51996;DHT22;38010;53.264;6.592;2023-06-22T10:32:39;23.80;97.70
51996;DHT22;38010;53.264;6.592;2023-06-22T10:35:05;23.90;97.80
51996;DHT22;38010;53.264;6.592;2023-06-22T10:37:31;23.90;97.70
51996;DHT22;38010;53.264;6.592;2023-06-22T10:39:57;24.00;97.70
51996;DHT22;38010;53.264;6.592;2023-06-22T10:42:23;24.00;97.70
51996;DHT22;38010;53.264;6.592;2023-06-22T10:44:49;24.10;97.70
51996;DHT22;38010;53.264;6.592;2023-06-22T10:47:14;24.10;97.70
51996;DHT22;38010;53.264;6.592;2023-06-22T10:49:41;24.20;97.70
51996;DHT22;38010;53.264;6.592;2023-06-22T10:52:07;24.20;97.90
51996;DHT22;38010;53.264;6.592;2023-06-22T10:54:34;24.20;97.90
51996;DHT22;38010;53.264;6.592;2023-06-22T10:57:00;24.10;98.00
51996;DHT22;38010;53.264;6.592;2023-06-22T10:59:26;24.00;98.00
51996;DHT22;38010;53.264;6.592;2023-06-22T11:01:53;24.00;98.10
51996;DHT22;38010;53.264;6.592;2023-06-22T11:04:18;24.00;98.00
51996;DHT22;38010;53.264;6.592;2023-06-22T11:06:44;24.10;98.00
51996;DHT22;38010;53.264;6.592;2023-06-22T11:09:10;24.10;98.00
51996;DHT22;38010;53.264;6.592;2023-06-22T11:11:36;24.20;98.20
51996;DHT22;38010;53.264;6.592;2023-06-22T11:14:01;24.30;97.90
51996;DHT22;38010;53.264;6.592;2023-06-22T11:16:27;24.30;98.00
51996;DHT22;38010;53.264;6.592;2023-06-22T11:18:53;24.40;98.00
51996;DHT22;38010;53.264;6.592;2023-06-22T11:21:18;24.40;98.10
51996;DHT22;38010;53.264;6.592;2023-06-22T11:23:45;24.50;98.10
51996;DHT22;38010;53.264;6.592;2023-06-22T11:26:11;24.50;98.00
51996;DHT22;38010;53.264;6.592;2023-06-22T11:28:36;24.60;98.20
51996;DHT22;38010;53.264;6.592;2023-06-22T11:31:03;24.60;98.20
51996;DHT22;38010;53.264;6.592;2023-06-22T11:33:28;24.70;98.20
51996;DHT22;38010;53.264;6.592;2023-06-22T11:35:54;24.70;98.30
51996;DHT22;38010;53.264;6.592;2023-06-22T11:38:22;24.70;98.30
51996;DHT22;38010;53.264;6.592;2023-06-22T11:40:47;24.80;98.30
51996;DHT22;38010;53.264;6.592;2023-06-22T11:43:13;24.80;98.50
51996;DHT22;38010;53.264;6.592;2023-06-22T11:45:40;24.80;97.80
51996;DHT22;38010;53.264;6.592;2023-06-22T11:48:06;24.80;97.70
51996;DHT22;38010;53.264;6.592;2023-06-22T11:50:32;24.80;97.60
51996;DHT22;38010;53.264;6.592;2023-06-22T11:53:02;24.70;97.70
51996;DHT22;38010;53.264;6.592;2023-06-22T11:55:28;24.80;97.90
51996;DHT22;38010;53.264;6.592;2023-06-22T11:57:56;24.80;97.80
51996;DHT22;38010;53.264;6.592;2023-06-22T12:00:24;24.90;97.90
51996;DHT22;38010;53.264;6.592;2023-06-22T12:02:52;24.90;97.90
51996;DHT22;38010;53.264;6.592;2023-06-22T12:05:21;24.90;97.90
51996;DHT22;38010;53.264;6.592;2023-06-22T12:07:48;24.90;97.90
51996;DHT22;38010;53.264;6.592;2023-06-22T12:10:14;24.80;97.90
51996;DHT22;38010;53.264;6.592;2023-06-22T12:12:40;24.80;97.70
51996;DHT22;38010;53.264;6.592;2023-06-22T12:15:06;24.80;97.60
51996;DHT22;38010;53.264;6.592;2023-06-22T12:17:34;24.90;97.60
51996;DHT22;38010;53.264;6.592;2023-06-22T12:20:00;24.90;97.60
51996;DHT22;38010;53.264;6.592;2023-06-22T12:22:26;24.90;97.60
51996;DHT22;38010;53.264;6.592;2023-06-22T12:24:51;24.90;97.50
51996;DHT22;38010;53.264;6.592;2023-06-22T12:27:17;24.90;97.60
51996;DHT22;38010;53.264;6.592;2023-06-22T12:29:45;24.90;97.70
51996;DHT22;38010;53.264;6.592;2023-06-22T12:32:11;24.90;97.90
51996;DHT22;38010;53.264;6.592;2023-06-22T12:34:38;24.90;97.80
51996;DHT22;38010;53.264;6.592;2023-06-22T12:37:04;24.90;97.80
51996;DHT22;38010;53.264;6.592;2023-06-22T12:39:31;24.90;97.80
51996;DHT22;38010;53.264;6.592;2023-06-22T12:41:57;24.80;98.00
51996;DHT22;38010;53.264;6.592;2023-06-22T12:44:23;24.80;97.90
51996;DHT22;38010;53.264;6.592;2023-06-22T12:46:49;24.80;98.00
51996;DHT22;38010;53.264;6.592;2023-06-22T12:49:15;24.80;97.90
51996;DHT22;38010;53.264;6.592;2023-06-22T12:51:42;24.80;97.90
51996;DHT22;38010;53.264;6.592;2023-06-22T12:54:09;24.80;97.90
51996;DHT22;38010;53.264;6.592;2023-06-22T12:56:35;24.80;97.90
51996;DHT22;38010;53.264;6.592;2023-06-22T12:59:00;24.80;98.10
51996;DHT22;38010;53.264;6.592;2023-06-22T13:01:30;24.80;97.90
51996;DHT22;38010;53.264;6.592;2023-06-22T13:04:00;24.80;98.00
51996;DHT22;38010;53.264;6.592;2023-06-22T13:06:25;24.80;98.00
51996;DHT22;38010;53.264;6.592;2023-06-22T13:08:51;24.90;98.10
51996;DHT22;38010;53.264;6.592;2023-06-22T13:11:17;24.80;98.30
51996;DHT22;38010;53.264;6.592;2023-06-22T13:13:44;24.70;98.00
51996;DHT22;38010;53.264;6.592;2023-06-22T13:16:10;24.70;98.00
51996;DHT22;38010;53.264;6.592;2023-06-22T13:18:35;24.70;98.00
51996;DHT22;38010;53.264;6.592;2023-06-22T13:21:02;24.60;97.90
51996;DHT22;38010;53.264;6.592;2023-06-22T13:23:28;24.60;97.90
51996;DHT22;38010;53.264;6.592;2023-06-22T13:25:54;24.60;97.90
51996;DHT22;38010;53.264;6.592;2023-06-22T13:28:19;24.50;97.90
51996;DHT22;38010;53.264;6.592;2023-06-22T13:30:46;24.60;98.00
51996;DHT22;38010;53.264;6.592;2023-06-22T13:33:16;24.60;97.40
51996;DHT22;38010;53.264;6.592;2023-06-22T13:35:42;24.70;97.00
51996;DHT22;38010;53.264;6.592;2023-06-22T13:38:09;24.70;96.70
51996;DHT22;38010;53.264;6.592;2023-06-22T13:40:37;24.70;96.90
51996;DHT22;38010;53.264;6.592;2023-06-22T13:43:04;24.60;96.70
51996;DHT22;38010;53.264;6.592;2023-06-22T13:45:30;24.50;96.70
51996;DHT22;38010;53.264;6.592;2023-06-22T13:47:56;24.50;96.60
51996;DHT22;38010;53.264;6.592;2023-06-22T13:50:22;24.40;96.50
51996;DHT22;38010;53.264;6.592;2023-06-22T13:52:48;24.40;96.50
51996;DHT22;38010;53.264;6.592;2023-06-22T13:55:14;24.30;96.50
51996;DHT22;38010;53.264;6.592;2023-06-22T13:57:40;24.30;96.60
51996;DHT22;38010;53.264;6.592;2023-06-22T14:00:07;24.20;96.60
51996;DHT22;38010;53.264;6.592;2023-06-22T14:02:34;24.30;96.90
51996;DHT22;38010;53.264;6.592;2023-06-22T14:05:00;24.40;97.20
51996;DHT22;38010;53.264;6.592;2023-06-22T14:07:26;24.40;97.00
51996;DHT22;38010;53.264;6.592;2023-06-22T14:09:51;24.50;97.10
51996;DHT22;38010;53.264;6.592;2023-06-22T14:12:17;24.50;97.20
51996;DHT22;38010;53.264;6.592;2023-06-22T14:14:43;24.50;97.10
51996;DHT22;38010;53.264;6.592;2023-06-22T14:17:09;24.40;97.20
51996;DHT22;38010;53.264;6.592;2023-06-22T14:19:35;24.40;97.20
51996;DHT22;38010;53.264;6.592;2023-06-22T14:22:01;24.40;97.00
51996;DHT22;38010;53.264;6.592;2023-06-22T14:24:27;24.30;96.70
51996;DHT22;38010;53.264;6.592;2023-06-22T14:26:54;24.30;96.50
51996;DHT22;38010;53.264;6.592;2023-06-22T14:29:20;24.20;96.40
51996;DHT22;38010;53.264;6.592;2023-06-22T14:31:46;24.20;96.60
51996;DHT22;38010;53.264;6.592;2023-06-22T14:34:12;24.20;96.60
51996;DHT22;38010;53.264;6.592;2023-06-22T14:36:38;24.20;96.40
51996;DHT22;38010;53.264;6.592;2023-06-22T14:39:04;24.10;96.10
51996;DHT22;38010;53.264;6.592;2023-06-22T14:41:30;24.10;96.00
51996;DHT22;38010;53.264;6.592;2023-06-22T14:43:57;24.10;96.10
51996;DHT22;38010;53.264;6.592;2023-06-22T14:46:23;24.00;95.80
51996;DHT22;38010;53.264;6.592;2023-06-22T14:48:49;24.00;95.70
51996;DHT22;38010;53.264;6.592;2023-06-22T14:51:15;24.00;95.60
51996;DHT22;38010;53.264;6.592;2023-06-22T14:53:42;23.90;95.60
51996;DHT22;38010;53.264;6.592;2023-06-22T14:56:07;23.90;95.50
51996;DHT22;38010;53.264;6.592;2023-06-22T14:58:33;23.90;95.50
51996;DHT22;38010;53.264;6.592;2023-06-22T15:01:03;23.90;95.40
51996;DHT22;38010;53.264;6.592;2023-06-22T15:03:30;23.90;95.40
51996;DHT22;38010;53.264;6.592;2023-06-22T15:05:58;23.90;95.30
51996;DHT22;38010;53.264;6.592;2023-06-22T15:08:24;23.90;95.40
51996;DHT22;38010;53.264;6.592;2023-06-22T15:10:51;23.90;95.30
51996;DHT22;38010;53.264;6.592;2023-06-22T15:13:17;23.80;95.20
51996;DHT22;38010;53.264;6.592;2023-06-22T15:15:44;23.80;95.00
51996;DHT22;38010;53.264;6.592;2023-06-22T15:18:09;23.80;95.00
51996;DHT22;38010;53.264;6.592;2023-06-22T15:20:35;23.70;95.00
51996;DHT22;38010;53.264;6.592;2023-06-22T15:23:01;23.70;94.90
51996;DHT22;38010;53.264;6.592;2023-06-22T15:25:26;23.70;94.80
51996;DHT22;38010;53.264;6.592;2023-06-22T15:27:52;23.70;94.80
51996;DHT22;38010;53.264;6.592;2023-06-22T15:30:18;23.70;94.70
51996;DHT22;38010;53.264;6.592;2023-06-22T15:32:44;23.60;94.60
51996;DHT22;38010;53.264;6.592;2023-06-22T15:35:11;23.60;94.60